Time;durP1;ratioP1;P1;durP2;ratioP2;P2;SDS_P1;SDS_P2;PMS_P1;PMS_P2;Temp;Humidity;BMP_temperature;BMP_pressure;BME280_temperature;BME280_humidity;BME280_pressure;Samples;Min_cycle;Max_cycle;Signal;HPM_P1;HPM_P2
2021/03/30 00:01:18;;;;;;;3.97;2.43;;;;;;;9.05;57.48;97982.19;4962980;28;20495;-69
2021/03/30 00:03:45;;;;;;;5.43;2.67;;;;;;;8.99;57.78;97978.97;4969821;28;20605;-71
2021/03/30 00:06:12;;;;;;;7.07;2.80;;;;;;;8.94;57.59;97979.09;4964659;28;20429;-71
2021/03/30 00:08:40;;;;;;;5.77;2.63;;;;;;;8.97;57.76;97978.16;4968664;28;20492;-72
2021/03/30 00:11:07;;;;;;;9.00;3.40;;;;;;;8.81;58.61;97967.44;4966342;28;20472;-70
2021/03/30 00:13:35;;;;;;;6.43;3.23;;;;;;;8.82;59.09;97966.53;4963477;28;20777;-71
2021/03/30 00:16:03;;;;;;;11.73;2.93;;;;;;;8.61;59.23;97968.97;4985184;28;20504;-72
2021/03/30 00:18:30;;;;;;;6.20;2.63;;;;;;;8.49;59.80;97959.00;4971115;28;20456;-70
2021/03/30 00:20:57;;;;;;;5.80;2.63;;;;;;;8.43;60.09;97966.97;4967744;28;20511;-71
2021/03/30 00:23:24;;;;;;;8.07;3.13;;;;;;;8.43;60.23;97960.03;4965924;28;20926;-73
2021/03/30 00:25:51;;;;;;;6.20;3.43;;;;;;;8.51;59.25;97962.41;4968697;28;20465;-70
2021/03/30 00:28:18;;;;;;;6.63;2.17;;;;;;;8.46;59.08;97965.13;4963359;28;21010;-71
2021/03/30 00:30:45;;;;;;;14.70;3.33;;;;;;;8.51;59.15;97958.06;4965670;28;21127;-72
2021/03/30 00:33:13;;;;;;;4.70;2.37;;;;;;;8.47;59.04;97956.47;4979964;28;20479;-73
2021/03/30 00:35:40;;;;;;;4.77;2.07;;;;;;;8.47;58.66;97961.66;4963721;28;20438;-72
2021/03/30 00:38:09;;;;;;;8.00;2.70;;;;;;;8.50;58.77;97958.09;4966914;28;20948;-71
2021/03/30 00:40:40;;;;;;;4.97;2.50;;;;;;;8.37;58.78;97953.38;4970017;28;20485;-72
2021/03/30 00:43:07;;;;;;;6.50;2.50;;;;;;;8.35;59.38;97946.47;4967865;28;20462;-73
2021/03/30 00:45:34;;;;;;;4.17;2.67;;;;;;;8.34;59.42;97949.94;4968880;28;20454;-71
2021/03/30 00:48:01;;;;;;;5.07;2.70;;;;;;;8.32;59.93;97945.69;4964424;28;20465;-72
2021/03/30 00:50:32;;;;;;;6.27;3.07;;;;;;;8.38;59.40;97955.91;4965938;28;20453;-71
2021/03/30 00:53:00;;;;;;;6.67;2.50;;;;;;;8.32;59.54;97951.75;4966610;28;21015;-72
2021/03/30 00:55:27;;;;;;;8.60;3.67;;;;;;;8.20;60.26;97938.31;4961486;28;20446;-70
2021/03/30 00:57:55;;;;;;;9.80;4.00;;;;;;;8.24;59.89;97949.47;4963959;28;20996;-70
2021/03/30 01:00:24;;;;;;;10.87;3.03;;;;;;;8.18;60.48;97953.91;4966877;28;20999;-71
2021/03/30 01:02:51;;;;;;;5.50;2.80;;;;;;;8.18;60.77;97949.59;4963949;28;20811;-71
2021/03/30 01:05:18;;;;;;;8.37;3.00;;;;;;;8.21;60.08;97942.63;4966192;28;20440;-73
2021/03/30 01:08:02;;;;;;;4.73;2.67;;;;;;;8.26;59.75;97950.25;4966904;28;20539;-72
2021/03/30 01:10:43;;;;;;;11.30;3.07;;;;;;;8.08;60.43;97928.28;4966910;28;20920;-74
2021/03/30 01:13:43;;;;;;;8.53;3.53;;;;;;;8.10;60.85;97946.41;4965391;28;20476;-71
2021/03/30 01:16:15;;;;;;;5.87;3.17;;;;;;;7.99;60.93;97956.22;4957999;28;20445;-73
2021/03/30 01:18:47;;;;;;;7.57;2.87;;;;;;;8.02;61.34;97945.78;4968707;28;20465;-71
2021/03/30 01:21:53;;;;;;;5.00;2.83;;;;;;;8.01;61.26;97950.13;4968681;28;20526;-74
2021/03/30 01:24:26;;;;;;;6.70;3.50;;;;;;;7.82;61.76;97943.81;4978619;28;20561;-72
2021/03/30 01:27:16;;;;;;;4.33;2.33;;;;;;;7.64;62.47;97943.50;4964289;28;20445;-73
2021/03/30 01:29:49;;;;;;;7.30;2.73;;;;;;;7.61;62.92;97939.25;4997273;28;20507;-70
2021/03/30 01:32:28;;;;;;;10.30;2.93;;;;;;;7.61;62.78;97943.56;4972869;28;20555;-71
2021/03/30 01:34:58;;;;;;;7.72;2.50;;;;;;;7.50;62.79;97946.44;4964165;28;20437;-71
2021/03/30 01:37:25;;;;;;;10.48;3.88;;;;;;;7.40;63.17;97941.56;4967428;28;20530;-73
2021/03/30 01:39:56;;;;;;;6.03;2.73;;;;;;;7.39;63.47;97942.47;4965245;28;20198;-71
2021/03/30 01:42:26;;;;;;;6.03;3.10;;;;;;;7.40;63.65;97942.44;4962729;28;21036;-70
2021/03/30 01:44:54;;;;;;;5.87;2.97;;;;;;;7.43;63.21;97939.75;4978345;28;20849;-71
2021/03/30 01:47:24;;;;;;;6.90;3.30;;;;;;;7.35;63.34;97935.69;4980682;28;20467;-71
2021/03/30 01:49:52;;;;;;;9.67;3.10;;;;;;;7.37;62.83;97945.09;4963920;28;20435;-70
2021/03/30 01:52:20;;;;;;;7.68;3.53;;;;;;;7.30;63.21;97942.72;4969561;28;20480;-72
2021/03/30 01:54:49;;;;;;;7.95;3.45;;;;;;;7.18;63.26;97946.50;4962917;28;20277;-71
2021/03/30 01:57:21;;;;;;;7.00;2.72;;;;;;;7.18;63.74;97940.47;4965256;28;20672;-73
2021/03/30 01:59:49;;;;;;;11.23;3.50;;;;;;;7.21;64.09;97945.56;4963056;28;20194;-73
2021/03/30 02:02:18;;;;;;;11.32;3.50;;;;;;;7.22;64.28;97948.09;4966595;28;20221;-73
2021/03/30 02:04:46;;;;;;;7.35;3.33;;;;;;;7.29;64.22;97941.03;4968040;28;20183;-70
2021/03/30 02:07:15;;;;;;;6.70;3.25;;;;;;;7.33;63.52;97938.31;4962368;28;20778;-72
2021/03/30 02:09:47;;;;;;;8.85;3.25;;;;;;;7.27;63.91;97938.47;4967290;28;20203;-71
2021/03/30 02:12:16;;;;;;;8.13;3.33;;;;;;;7.34;63.36;97939.16;4964675;28;20312;-72
2021/03/30 02:14:43;;;;;;;5.75;3.30;;;;;;;7.29;63.16;97935.84;4981404;28;20543;-72
2021/03/30 02:17:20;;;;;;;8.25;3.40;;;;;;;7.25;62.90;97937.69;4966553;28;20218;-70
2021/03/30 02:19:52;;;;;;;7.90;3.40;;;;;;;7.19;63.15;97939.56;4964339;28;20625;-72
2021/03/30 02:22:24;;;;;;;5.22;2.80;;;;;;;7.19;63.60;97935.25;4964973;28;20620;-73
2021/03/30 02:24:52;;;;;;;9.18;3.50;;;;;;;7.26;62.98;97935.91;4963274;28;20952;-71
2021/03/30 02:27:21;;;;;;;12.80;4.13;;;;;;;7.15;63.82;97937.97;4980319;28;20747;-72
2021/03/30 02:29:50;;;;;;;10.00;3.47;;;;;;;7.16;63.38;97934.47;4994338;28;20666;-71
2021/03/30 02:32:20;;;;;;;7.10;3.63;;;;;;;7.20;63.79;97930.94;4966416;28;20669;-72
2021/03/30 02:34:48;;;;;;;7.53;3.25;;;;;;;7.20;63.97;97930.94;4956260;28;20191;-72
2021/03/30 02:37:18;;;;;;;7.82;3.25;;;;;;;7.11;63.67;97931.16;4955739;28;20215;-69
2021/03/30 02:39:46;;;;;;;13.45;4.20;;;;;;;7.04;63.98;97924.44;4965513;28;20646;-71
2021/03/30 02:42:14;;;;;;;7.82;3.17;;;;;;;7.04;64.05;97924.44;4968147;28;20230;-71
2021/03/30 02:44:42;;;;;;;10.50;3.03;;;;;;;6.97;64.28;97920.31;4972936;28;20578;-69
2021/03/30 02:47:11;;;;;;;6.15;2.90;;;;;;;7.08;64.30;97926.06;4965508;28;20218;-70
2021/03/30 02:49:38;;;;;;;5.97;2.85;;;;;;;7.00;64.48;97928.03;4970632;28;20202;-71
2021/03/30 02:52:06;;;;;;;8.57;2.83;;;;;;;6.89;64.70;97924.84;4958369;28;20673;-71
2021/03/30 02:54:34;;;;;;;8.02;3.42;;;;;;;6.88;64.68;97926.63;4971745;28;20197;-71
2021/03/30 02:57:02;;;;;;;7.22;3.20;;;;;;;6.70;65.41;97905.53;4969877;28;20551;-71
2021/03/30 02:59:30;;;;;;;7.80;3.88;;;;;;;6.75;64.89;97934.72;4983068;28;20222;-73
2021/03/30 03:02:01;;;;;;;10.73;2.90;;;;;;;6.69;65.90;97937.47;4968879;28;20535;-71
2021/03/30 03:04:30;;;;;;;10.80;3.13;;;;;;;6.64;65.93;97932.38;4972685;28;20212;-70
2021/03/30 03:06:57;;;;;;;4.57;2.80;;;;;;;6.65;65.66;97935.84;4984851;28;20660;-73
2021/03/30 03:09:25;;;;;;;7.45;3.58;;;;;;;6.61;65.67;97935.06;4973846;28;20199;-70
2021/03/30 03:11:56;;;;;;;6.00;3.30;;;;;;;6.58;66.08;97935.16;4969999;28;20202;-70
2021/03/30 03:17:16;;;;;;;5.53;2.60;;;;;;;6.62;65.69;97936.75;4967514;28;20286;-72
2021/03/30 03:19:43;;;;;;;5.75;3.25;;;;;;;6.65;65.10;97941.00;4966025;28;20191;-70
2021/03/30 03:22:11;;;;;;;6.85;3.20;;;;;;;6.63;65.03;97942.81;4966019;28;20214;-72
2021/03/30 03:24:39;;;;;;;5.90;2.85;;;;;;;6.51;65.39;97932.75;4981705;28;20222;-72
2021/03/30 03:27:08;;;;;;;7.72;3.03;;;;;;;6.48;65.88;97940.59;4969229;28;20804;-72
2021/03/30 03:29:35;;;;;;;5.07;2.40;;;;;;;6.46;65.41;97940.63;4972031;28;20190;-71
2021/03/30 03:32:05;;;;;;;17.95;3.15;;;;;;;6.41;65.79;97941.63;4970537;28;20526;-73
2021/03/30 03:34:32;;;;;;;8.00;3.28;;;;;;;6.37;66.30;97935.69;4972484;28;20236;-70
2021/03/30 03:37:01;;;;;;;7.15;2.80;;;;;;;6.43;66.38;97937.25;4966158;28;20659;-71
2021/03/30 03:39:28;;;;;;;10.07;2.60;;;;;;;6.47;65.55;97938.91;4967142;28;20193;-69
2021/03/30 03:41:57;;;;;;;6.70;3.00;;;;;;;6.40;66.06;97939.94;4965510;28;20557;-71
2021/03/30 03:44:27;;;;;;;10.48;3.42;;;;;;;6.32;65.82;97932.34;4966555;28;20664;-70
2021/03/30 03:46:54;;;;;;;3.70;2.45;;;;;;;6.31;66.31;97937.53;4968468;28;20577;-71
2021/03/30 03:49:23;;;;;;;5.32;2.75;;;;;;;6.28;66.50;97937.63;4969727;28;20190;-70
2021/03/30 03:51:56;;;;;;;4.57;2.40;;;;;;;6.05;67.26;97942.47;4965074;28;20202;-72
2021/03/30 03:54:27;;;;;;;8.60;2.83;;;;;;;6.09;67.04;97944.09;4970785;28;20382;-71
2021/03/30 03:56:58;;;;;;;4.75;2.40;;;;;;;6.08;66.91;97942.41;4968957;28;20194;-70
2021/03/30 03:59:29;;;;;;;7.53;2.83;;;;;;;6.05;66.72;97951.06;4970777;28;20269;-71
2021/03/30 04:01:59;;;;;;;6.80;2.65;;;;;;;5.95;67.06;97946.13;4967880;28;20214;-72
2021/03/30 04:04:33;;;;;;;5.18;2.47;;;;;;;5.96;66.99;97947.88;4971448;28;20194;-70
2021/03/30 04:07:04;;;;;;;8.32;3.30;;;;;;;6.04;66.93;97946.78;4962026;28;20709;-70
2021/03/30 04:09:33;;;;;;;5.28;2.80;;;;;;;6.08;66.88;97942.41;4980248;28;20577;-71
2021/03/30 04:12:02;;;;;;;4.93;2.40;;;;;;;6.03;67.29;97952.00;4968591;28;20784;-70
2021/03/30 04:14:34;;;;;;;8.18;3.13;;;;;;;6.03;67.21;97949.44;4968693;28;20281;-69
2021/03/30 04:17:01;;;;;;;15.95;2.80;;;;;;;5.98;67.63;97946.09;4970548;28;20191;-68
2021/03/30 04:19:28;;;;;;;8.48;2.95;;;;;;;5.94;68.45;97953.06;4971348;28;20244;-70
2021/03/30 04:21:55;;;;;;;6.13;2.67;;;;;;;5.90;67.68;97958.34;4966865;28;20187;-69
2021/03/30 04:24:22;;;;;;;4.60;2.60;;;;;;;5.83;68.47;97954.19;5000864;28;20700;-69
2021/03/30 04:26:49;;;;;;;5.00;2.90;;;;;;;5.90;68.23;97954.00;4979349;28;20536;-71
2021/03/30 04:29:17;;;;;;;11.20;3.40;;;;;;;5.89;68.20;97954.88;4971442;28;20190;-72
2021/03/30 04:31:46;;;;;;;15.13;4.05;;;;;;;5.89;68.31;97956.63;4968514;28;20206;-68
2021/03/30 04:34:14;;;;;;;5.47;3.20;;;;;;;5.92;68.36;97961.72;4965798;28;20528;-68
2021/03/30 04:36:41;;;;;;;8.63;2.83;;;;;;;5.77;68.69;97947.38;4983576;28;20253;-70
2021/03/30 04:39:08;;;;;;;6.03;2.45;;;;;;;5.62;69.29;97946.84;4999267;28;20665;-70
2021/03/30 04:41:34;;;;;;;7.55;3.28;;;;;;;5.67;69.26;97950.19;4970315;28;20297;-69
2021/03/30 04:44:02;;;;;;;7.45;2.97;;;;;;;5.80;69.26;97951.66;4967633;28;20341;-68
2021/03/30 04:46:28;;;;;;;6.95;2.97;;;;;;;5.76;68.64;97950.81;4962267;28;20590;-69
2021/03/30 04:48:56;;;;;;;47.05;17.10;;;;;;;5.77;68.82;97957.72;4981418;28;20217;-71
2021/03/30 04:51:23;;;;;;;9.07;4.55;;;;;;;5.77;68.88;97956.84;4968578;28;20523;-69
2021/03/30 04:53:50;;;;;;;5.55;2.95;;;;;;;5.68;69.03;97962.22;4977586;28;20586;-71
2021/03/30 04:56:17;;;;;;;8.65;3.08;;;;;;;5.59;69.05;97955.50;4979506;28;20210;-70
2021/03/30 04:58:44;;;;;;;5.53;2.80;;;;;;;5.48;69.25;97969.53;4969006;28;20696;-70
2021/03/30 05:01:11;;;;;;;7.90;3.03;;;;;;;5.41;69.52;97960.19;4969074;28;20190;-71
2021/03/30 05:03:38;;;;;;;5.80;2.95;;;;;;;5.45;69.83;97967.00;4984513;28;20605;-69
2021/03/30 05:06:06;;;;;;;6.82;3.10;;;;;;;5.37;70.10;97966.28;4955865;28;20649;-71
2021/03/30 05:08:33;;;;;;;11.52;3.25;;;;;;;5.39;70.04;97969.72;4955265;28;20272;-70
2021/03/30 05:11:00;;;;;;;9.27;2.72;;;;;;;5.27;70.60;97968.22;4974660;28;20193;-71
2021/03/30 05:13:26;;;;;;;5.40;3.40;;;;;;;5.30;70.95;97969.91;4965694;28;20679;-72
2021/03/30 05:15:53;;;;;;;6.50;2.80;;;;;;;5.27;70.31;97965.63;4981084;28;20707;-69
2021/03/30 05:18:20;;;;;;;5.55;2.78;;;;;;;5.30;70.17;97954.41;4966392;28;20221;-68
2021/03/30 05:20:48;;;;;;;8.75;3.17;;;;;;;5.33;70.78;97964.66;4970823;28;20205;-70
2021/03/30 05:23:16;;;;;;;4.35;2.90;;;;;;;5.34;70.20;97967.22;4963384;28;20571;-71
2021/03/30 05:25:43;;;;;;;8.80;3.10;;;;;;;5.32;70.51;97975.88;4976385;28;20230;-70
2021/03/30 05:28:09;;;;;;;5.93;2.75;;;;;;;5.45;70.19;97972.16;4967882;28;20876;-69
2021/03/30 05:30:36;;;;;;;6.15;2.55;;;;;;;5.49;69.72;97971.22;4962409;28;20680;-68
2021/03/30 05:33:04;;;;;;;5.57;2.70;;;;;;;5.47;69.75;97968.66;4965683;28;20226;-70
2021/03/30 05:35:31;;;;;;;6.22;2.50;;;;;;;5.48;69.87;97977.25;4962127;28;20194;-70
2021/03/30 05:37:58;;;;;;;3.97;2.70;;;;;;;5.55;70.06;97971.09;4980707;28;20276;-70
2021/03/30 05:40:25;;;;;;;8.68;2.33;;;;;;;5.63;70.04;97971.78;4969492;28;20350;-69
2021/03/30 05:42:53;;;;;;;9.75;2.92;;;;;;;5.77;69.44;97972.34;4968111;28;20728;-70
2021/03/30 05:45:23;;;;;;;5.32;2.85;;;;;;;5.84;69.17;97968.78;4969062;28;20516;-70
2021/03/30 05:47:51;;;;;;;7.82;3.05;;;;;;;5.86;69.22;97972.19;4965767;28;20565;-68
2021/03/30 05:50:20;;;;;;;8.98;2.75;;;;;;;5.84;68.98;97969.63;4976035;28;20501;-70
2021/03/30 05:52:51;;;;;;;8.32;3.05;;;;;;;5.88;68.78;97973.00;4962546;28;20620;-70
2021/03/30 05:55:26;;;;;;;6.75;3.28;;;;;;;5.94;69.12;97975.44;4978931;28;20195;-68
2021/03/30 05:57:54;;;;;;;8.25;2.90;;;;;;;5.99;68.54;97973.63;4970386;28;20215;-70
2021/03/30 06:00:28;;;;;;;5.85;3.20;;;;;;;6.01;68.75;97977.00;4960166;28;20202;-69
2021/03/30 06:02:58;;;;;;;7.38;2.80;;;;;;;6.23;68.27;97983.41;4964888;28;20286;-68
2021/03/30 06:05:24;;;;;;;11.07;2.65;;;;;;;6.39;67.42;97979.56;4963348;28;20187;-69
2021/03/30 06:07:59;;;;;;;6.25;2.63;;;;;;;6.42;66.67;97979.53;4963639;28;20775;-69
2021/03/30 06:10:30;;;;;;;5.03;2.40;;;;;;;6.59;67.10;97980.81;4965595;28;20711;-68
2021/03/30 06:13:00;;;;;;;6.85;3.15;;;;;;;6.76;66.47;97977.81;4966004;28;20222;-68
2021/03/30 06:15:28;;;;;;;8.30;2.47;;;;;;;6.86;65.82;97982.72;4969108;28;20620;-71
2021/03/30 06:17:56;;;;;;;7.82;3.35;;;;;;;6.88;65.63;97974.91;4971657;28;20643;-69
2021/03/30 06:20:28;;;;;;;6.20;2.85;;;;;;;7.13;65.33;97991.53;4972092;28;20634;-69
2021/03/30 06:22:58;;;;;;;13.82;2.85;;;;;;;7.42;64.62;97983.84;4967006;28;20561;-70
2021/03/30 06:25:40;;;;;;;5.72;2.70;;;;;;;7.73;63.41;97984.69;4965867;28;20733;-69
2021/03/30 06:28:18;;;;;;;5.13;3.00;;;;;;;7.93;62.85;97987.50;4970225;28;20580;-72
2021/03/30 06:31:03;;;;;;;7.43;3.30;;;;;;;7.91;63.32;97984.13;4960203;28;20197;-69
2021/03/30 06:33:32;;;;;;;8.27;4.05;;;;;;;7.77;63.37;97986.25;4970609;28;20662;-70
2021/03/30 06:36:16;;;;;;;9.57;3.20;;;;;;;7.77;63.42;97979.34;4970375;28;20194;-70
2021/03/30 06:38:54;;;;;;;6.45;3.17;;;;;;;7.91;63.60;97973.75;4971178;28;20234;-70
2021/03/30 06:41:32;;;;;;;5.57;2.85;;;;;;;8.41;62.42;97985.19;4973468;28;20575;-72
2021/03/30 06:44:25;;;;;;;6.47;2.90;;;;;;;8.74;61.60;97985.84;4973225;28;20229;-70
2021/03/30 06:46:55;;;;;;;5.47;3.60;;;;;;;8.95;60.46;97980.81;4971047;28;20495;-71
2021/03/30 06:49:24;;;;;;;9.40;3.20;;;;;;;9.19;59.97;97977.38;4966062;28;20433;-70
2021/03/30 06:51:52;;;;;;;8.90;2.97;;;;;;;9.43;59.58;97979.13;4966346;28;20810;-71
2021/03/30 06:54:23;;;;;;;5.63;3.47;;;;;;;10.08;58.42;97969.78;4971069;28;20909;-71
2021/03/30 06:56:53;;;;;;;10.10;2.70;;;;;;;10.61;57.52;97976.34;4968661;28;20834;-69
2021/03/30 06:59:20;;;;;;;11.70;3.90;;;;;;;11.03;56.20;97972.00;4972546;28;20438;-71
2021/03/30 07:01:50;;;;;;;15.00;3.70;;;;;;;11.46;54.85;97973.63;4966527;28;20757;-70
2021/03/30 07:04:17;;;;;;;10.20;3.73;;;;;;;11.80;54.01;97974.75;4964702;28;20460;-70
2021/03/30 07:06:49;;;;;;;11.17;4.07;;;;;;;12.21;52.73;97971.06;4969343;28;20464;-70
2021/03/30 07:09:17;;;;;;;7.20;4.13;;;;;;;12.37;52.46;97972.06;4970729;28;20918;-71
2021/03/30 07:11:44;;;;;;;11.53;5.70;;;;;;;12.99;51.13;97977.75;4964542;28;20462;-72
2021/03/30 07:14:12;;;;;;;25.67;7.60;;;;;;;12.95;51.06;97969.22;4964833;28;20550;-70
2021/03/30 07:16:48;;;;;;;16.20;6.20;;;;;;;13.72;49.20;97981.78;4964673;28;21466;-70
2021/03/30 07:19:18;;;;;;;16.83;4.77;;;;;;;14.27;48.30;97974.47;4986986;28;20899;-69
2021/03/30 07:21:58;;;;;;;15.90;6.20;;;;;;;14.38;47.73;97974.75;4999697;28;20447;-69
2021/03/30 07:24:29;;;;;;;9.93;4.90;;;;;;;14.48;48.14;97970.69;4967559;28;20487;-70
2021/03/30 07:27:01;;;;;;;15.57;5.20;;;;;;;14.55;47.89;97975.53;4965686;28;20441;-69
2021/03/30 07:29:36;;;;;;;23.30;5.10;;;;;;;15.32;46.48;97971.09;4980572;28;20511;-69
2021/03/30 07:32:08;;;;;;;14.17;5.10;;;;;;;15.83;46.01;97965.34;4983784;28;20821;-71
2021/03/30 07:34:46;;;;;;;29.00;5.17;;;;;;;16.47;44.89;97968.31;4966656;28;20507;-70
2021/03/30 07:37:18;;;;;;;12.23;5.33;;;;;;;16.67;44.71;97963.50;4969560;28;20477;-70
2021/03/30 07:39:49;;;;;;;20.77;5.40;;;;;;;17.36;43.70;97968.56;4964621;28;20441;-70
2021/03/30 07:42:16;;;;;;;18.00;5.33;;;;;;;17.79;42.77;97966.41;4966856;28;20469;-72
2021/03/30 07:44:47;;;;;;;16.70;5.43;;;;;;;18.48;42.26;97963.28;4966229;28;21014;-70
2021/03/30 07:47:17;;;;;;;15.40;4.90;;;;;;;19.07;41.34;97952.69;4979255;28;20453;-73
2021/03/30 07:49:46;;;;;;;20.20;5.60;;;;;;;19.39;40.76;97960.91;4979949;28;20437;-73
2021/03/30 07:52:22;;;;;;;15.60;4.87;;;;;;;19.67;40.64;97953.41;4967945;28;20469;-70
2021/03/30 07:55:19;;;;;;;10.53;3.90;;;;;;;19.35;41.05;97960.28;4969120;28;20919;-71
2021/03/30 07:58:00;;;;;;;8.37;4.20;;;;;;;19.80;40.67;97959.44;4968290;28;20550;-72
2021/03/30 08:00:51;;;;;;;6.50;3.00;;;;;;;19.92;40.76;97969.06;4965833;28;20441;-70
2021/03/30 08:03:27;;;;;;;10.87;3.70;;;;;;;19.93;40.73;97965.47;4963800;28;20489;-71
2021/03/30 08:06:19;;;;;;;11.00;4.23;;;;;;;20.15;40.75;97954.94;4967578;28;20848;-72
2021/03/30 08:09:13;;;;;;;15.97;4.87;;;;;;;20.91;39.50;97958.44;4967304;28;20559;-72
2021/03/30 08:11:52;;;;;;;35.97;5.40;;;;;;;21.09;39.10;97959.59;4970284;28;20519;-71
2021/03/30 08:14:41;;;;;;;9.50;4.20;;;;;;;21.41;39.05;97952.47;4967447;28;20543;-72
2021/03/30 08:17:19;;;;;;;19.97;4.47;;;;;;;21.33;39.53;97957.56;4980268;28;20954;-72
2021/03/30 08:19:58;;;;;;;21.70;4.10;;;;;;;21.55;39.55;97954.81;4957844;28;20890;-72
2021/03/30 08:22:41;;;;;;;13.93;3.63;;;;;;;22.12;38.92;97944.56;4956269;28;20457;-70
2021/03/30 08:25:24;;;;;;;8.77;3.00;;;;;;;22.09;38.68;97950.13;4967537;28;20480;-72
2021/03/30 08:27:51;;;;;;;11.57;3.60;;;;;;;21.96;39.29;97943.38;4963935;28;21180;-71
2021/03/30 08:30:57;;;;;;;16.93;3.63;;;;;;;21.30;40.00;97955.19;4966591;28;20445;-69
2021/03/30 08:33:33;;;;;;;15.03;3.97;;;;;;;20.95;41.27;97954.59;4969297;28;20959;-72
2021/03/30 08:36:26;;;;;;;17.80;3.57;;;;;;;20.54;42.30;97961.53;4966143;28;20436;-71
2021/03/30 08:38:57;;;;;;;14.70;3.80;;;;;;;20.40;43.00;97956.47;4963346;28;20469;-70
2021/03/30 08:41:49;;;;;;;11.03;3.80;;;;;;;20.38;42.99;97956.59;4964289;28;20958;-70
2021/03/30 08:44:18;;;;;;;8.50;3.87;;;;;;;20.54;43.18;97959.69;4968274;28;20461;-70
2021/03/30 08:46:47;;;;;;;30.47;4.23;;;;;;;20.90;42.70;97955.94;4968868;28;20534;-74
2021/03/30 08:49:32;;;;;;;11.37;3.50;;;;;;;20.54;43.04;97954.41;4968788;28;20453;-70
2021/03/30 08:52:01;;;;;;;33.97;5.27;;;;;;;19.96;43.96;97957.28;4963344;28;21038;-70
2021/03/30 08:54:30;;;;;;;16.20;4.10;;;;;;;19.80;44.00;97951.50;4964362;28;20433;-72
2021/03/30 08:57:00;;;;;;;10.90;3.33;;;;;;;19.59;41.36;97947.84;4965613;28;20440;-70
2021/03/30 08:59:29;;;;;;;9.27;3.10;;;;;;;19.78;38.71;97958.72;4969268;28;20463;-71
2021/03/30 09:02:00;;;;;;;8.93;2.60;;;;;;;20.06;40.87;97955.66;4967547;28;20442;-73
2021/03/30 09:04:34;;;;;;;4.30;2.20;;;;;;;19.98;37.31;97951.88;4967315;28;20496;-70
2021/03/30 09:07:05;;;;;;;9.87;2.57;;;;;;;19.78;37.99;97958.72;4979352;28;20915;-71
2021/03/30 09:09:35;;;;;;;7.17;3.70;;;;;;;19.89;37.70;97953.44;4966416;28;20921;-71
2021/03/30 09:12:05;;;;;;;5.57;3.17;;;;;;;20.35;37.41;97962.16;4964890;28;20454;-72
2021/03/30 09:14:32;;;;;;;13.27;3.30;;;;;;;20.52;36.23;97953.69;4962625;28;20801;-71
2021/03/30 09:17:07;;;;;;;7.43;3.33;;;;;;;20.77;37.17;97955.22;4963786;28;20741;-71
2021/03/30 09:19:44;;;;;;;8.10;3.63;;;;;;;21.27;34.76;97955.44;4984609;28;20829;-71
2021/03/30 09:22:20;;;;;;;14.13;3.50;;;;;;;21.00;35.75;97952.38;4962887;28;20474;-69
2021/03/30 09:27:33;;;;;;;9.37;3.43;;;;;;;20.90;36.58;97946.19;4957134;28;20469;-70
2021/03/30 09:30:03;;;;;;;7.40;3.40;;;;;;;21.34;35.49;97939.88;4957742;28;20912;-70
2021/03/30 09:32:31;;;;;;;7.50;3.90;;;;;;;21.53;33.40;97940.84;4978588;28;20532;-70
2021/03/30 09:35:07;;;;;;;10.70;3.33;;;;;;;20.86;34.35;97934.13;4966407;28;20448;-68
2021/03/30 09:37:43;;;;;;;7.40;3.67;;;;;;;20.90;33.98;97940.88;4964777;28;20825;-69
2021/03/30 09:40:12;;;;;;;7.27;2.40;;;;;;;21.66;33.76;97941.50;4967645;28;20816;-71
2021/03/30 09:42:50;;;;;;;5.83;2.60;;;;;;;22.01;34.08;97935.88;4962994;28;20952;-69
2021/03/30 09:45:24;;;;;;;12.90;3.53;;;;;;;22.59;31.74;97928.00;4963923;28;20530;-71
2021/03/30 09:47:52;;;;;;;7.33;3.03;;;;;;;22.25;32.48;97917.81;4965145;28;21187;-70
2021/03/30 09:50:22;;;;;;;4.87;2.60;;;;;;;22.61;31.91;97932.19;4967104;28;20911;-71
2021/03/30 09:52:50;;;;;;;6.07;2.80;;;;;;;23.33;31.31;97927.41;4968349;28;20523;-71
2021/03/30 09:55:31;;;;;;;7.23;2.70;;;;;;;22.62;31.05;97930.41;4982583;28;20554;-72
2021/03/30 09:58:00;;;;;;;5.33;2.97;;;;;;;22.86;31.32;97923.72;4968336;28;20869;-70
2021/03/30 10:00:30;;;;;;;5.93;3.30;;;;;;;22.53;32.02;97929.38;4960712;28;20504;-72
2021/03/30 10:02:57;;;;;;;11.97;2.70;;;;;;;22.82;31.30;97929.44;4959652;28;20967;-70
2021/03/30 10:05:32;;;;;;;4.87;2.80;;;;;;;22.80;30.94;97920.78;4967503;28;20933;-72
2021/03/30 10:07:59;;;;;;;6.50;3.00;;;;;;;22.86;30.55;97925.53;4967964;28;20461;-71
2021/03/30 10:10:26;;;;;;;8.00;4.23;;;;;;;23.15;29.94;97921.13;4964793;28;20766;-72
2021/03/30 10:12:55;;;;;;;10.33;3.17;;;;;;;23.10;30.85;97920.66;4967029;28;20867;-71
2021/03/30 10:15:36;;;;;;;5.00;3.27;;;;;;;23.23;30.56;97918.59;4966458;28;20528;-71
2021/03/30 10:18:05;;;;;;;5.13;3.50;;;;;;;23.37;30.72;97915.53;4970824;28;20509;-71
2021/03/30 10:20:36;;;;;;;10.47;3.57;;;;;;;23.15;29.94;97916.63;4972914;28;20476;-71
2021/03/30 10:23:14;;;;;;;7.17;2.77;;;;;;;23.52;29.66;97906.13;4969638;28;20512;-72
2021/03/30 10:25:42;;;;;;;14.43;3.10;;;;;;;24.23;29.72;97906.34;4972434;28;20539;-72
2021/03/30 10:28:11;;;;;;;5.97;2.73;;;;;;;24.42;29.34;97900.94;4970446;28;20523;-74
2021/03/30 10:30:42;;;;;;;7.33;2.90;;;;;;;24.86;29.56;97894.81;4973764;28;20471;-72
2021/03/30 10:33:13;;;;;;;7.60;1.90;;;;;;;24.33;29.41;97898.31;4965244;28;21093;-72
2021/03/30 10:35:42;;;;;;;5.27;2.77;;;;;;;25.07;28.92;97897.16;4965560;28;20436;-72
2021/03/30 10:38:09;;;;;;;7.33;3.30;;;;;;;24.52;30.17;97900.91;4999213;28;20835;-72
2021/03/30 10:40:41;;;;;;;8.63;3.10;;;;;;;24.96;28.92;97894.75;4966095;28;20442;-71
2021/03/30 10:43:22;;;;;;;12.00;3.10;;;;;;;24.99;28.46;97894.44;4972376;28;20473;-72
2021/03/30 10:45:51;;;;;;;9.13;3.30;;;;;;;25.37;27.93;97888.78;4967715;28;20832;-73
2021/03/30 10:48:19;;;;;;;8.20;3.00;;;;;;;25.35;28.33;97886.28;4967832;28;20998;-73
2021/03/30 10:50:47;;;;;;;7.03;2.47;;;;;;;25.55;28.80;97877.09;4972495;28;20463;-71
2021/03/30 10:53:15;;;;;;;5.80;2.30;;;;;;;25.46;28.24;97866.53;4969973;28;20495;-72
2021/03/30 10:55:43;;;;;;;3.30;1.90;;;;;;;25.45;27.91;97872.84;4972828;28;20441;-71
2021/03/30 10:58:11;;;;;;;8.30;3.00;;;;;;;25.70;27.73;97872.06;4968437;28;20949;-70
2021/03/30 11:00:40;;;;;;;11.20;2.80;;;;;;;25.97;27.19;97867.41;4971886;28;20986;-72
2021/03/30 11:03:13;;;;;;;5.70;2.10;;;;;;;26.42;27.65;97861.78;5001892;28;20461;-72
2021/03/30 11:06:06;;;;;;;3.90;2.00;;;;;;;27.16;27.08;97863.47;4975418;28;20617;-71
2021/03/30 11:08:33;;;;;;;9.03;2.17;;;;;;;27.92;25.74;97854.88;5000526;28;20952;-71
2021/03/30 11:11:00;;;;;;;3.80;2.67;;;;;;;28.02;26.44;97850.19;4969293;28;21194;-70
2021/03/30 11:13:27;;;;;;;3.87;2.47;;;;;;;26.68;26.70;97859.84;4958122;28;21005;-71
2021/03/30 11:15:54;;;;;;;12.13;3.20;;;;;;;26.12;28.12;97848.94;4964787;28;20437;-71
2021/03/30 11:18:21;;;;;;;11.13;2.87;;;;;;;25.67;27.78;97843.84;4983330;28;20461;-70
2021/03/30 11:20:47;;;;;;;5.03;2.43;;;;;;;25.97;27.15;97846.03;4965806;28;20953;-71
2021/03/30 11:23:15;;;;;;;3.97;2.20;;;;;;;26.81;27.80;97846.88;4967717;28;21033;-72
2021/03/30 11:25:43;;;;;;;11.07;3.30;;;;;;;27.43;27.44;97840.88;4965996;28;20998;-72
2021/03/30 11:28:11;;;;;;;14.17;3.70;;;;;;;27.64;26.35;97840.19;4967572;28;20469;-73
2021/03/30 11:30:42;;;;;;;4.57;2.97;;;;;;;27.56;26.62;97843.88;4967101;28;20916;-72
2021/03/30 11:33:13;;;;;;;4.50;2.77;;;;;;;28.75;26.01;97839.97;4958145;28;20852;-73
2021/03/30 11:35:48;;;;;;;13.93;2.93;;;;;;;28.73;25.29;97840.16;4968948;28;20448;-71
2021/03/30 11:38:16;;;;;;;13.90;2.93;;;;;;;28.79;25.56;97823.34;4956981;28;20569;-72
2021/03/30 11:40:45;;;;;;;7.53;3.10;;;;;;;29.27;25.80;97828.41;4970781;28;20440;-70
2021/03/30 11:43:13;;;;;;;6.80;2.77;;;;;;;30.25;25.91;97819.16;4967746;28;20979;-71
2021/03/30 11:45:41;;;;;;;5.50;3.67;;;;;;;29.15;25.72;97820.94;4965519;28;20931;-70
2021/03/30 11:48:09;;;;;;;5.57;3.10;;;;;;;29.15;25.88;97818.25;4963809;28;20474;-73
2021/03/30 11:50:37;;;;;;;8.20;3.40;;;;;;;29.60;26.36;97821.72;4958502;28;20944;-72
2021/03/30 11:53:05;;;;;;;4.70;2.87;;;;;;;30.14;26.76;97814.28;4961906;28;21233;-70
2021/03/30 11:55:33;;;;;;;9.50;3.13;;;;;;;30.81;26.64;97811.19;4963917;28;20484;-73
2021/03/30 11:58:00;;;;;;;5.50;3.47;;;;;;;31.29;26.83;97809.63;4965347;28;20477;-71
2021/03/30 12:00:27;;;;;;;16.73;3.70;;;;;;;-142.13;100.00;58370.81;4964040;28;20835;-72